Time;durP1;ratioP1;P1;durP2;ratioP2;P2;SDS_P1;SDS_P2;PMS_P1;PMS_P2;Temp;Humidity;BMP_temperature;BMP_pressure;BME280_temperature;BME280_humidity;BME280_pressure;Samples;Min_cycle;Max_cycle;Signal;HPM_P1;HPM_P2
2022/11/19 00:00:45;;;;;;;14.83;10.10;;;2.20;99.90;;;;;;4975862;28;20184;-81
2022/11/19 00:03:12;;;;;;;15.63;10.87;;;2.10;99.90;;;;;;4975200;28;20241;-81
2022/11/19 00:05:43;;;;;;;15.43;10.27;;;2.10;99.90;;;;;;4975607;28;20200;-80
2022/11/19 00:08:09;;;;;;;16.57;10.33;;;2.10;99.90;;;;;;4974366;28;20196;-81
2022/11/19 00:10:37;;;;;;;16.70;10.60;;;2.10;99.90;;;;;;4974475;28;20247;-81
2022/11/19 00:13:03;;;;;;;16.10;10.63;;;2.00;99.90;;;;;;4974295;28;20181;-81
2022/11/19 00:15:28;;;;;;;15.97;10.40;;;1.90;99.90;;;;;;4974524;28;20327;-81
2022/11/19 00:17:56;;;;;;;18.17;11.50;;;1.80;99.90;;;;;;4974383;28;20295;-81
2022/11/19 00:20:22;;;;;;;16.00;10.67;;;1.70;99.90;;;;;;4975721;28;20188;-80
2022/11/19 00:22:59;;;;;;;18.07;11.53;;;1.60;99.90;;;;;;4974142;28;20234;-80
2022/11/19 00:25:27;;;;;;;17.93;11.33;;;1.60;99.90;;;;;;4975526;28;20168;-81
2022/11/19 00:27:52;;;;;;;18.17;10.67;;;1.70;99.90;;;;;;5015932;23;20234;-80
2022/11/19 00:30:19;;;;;;;17.10;10.60;;;1.70;99.90;;;;;;5001830;28;20179;-80
2022/11/19 00:32:45;;;;;;;16.77;11.13;;;1.70;99.90;;;;;;5012511;28;20225;-80
2022/11/19 00:35:10;;;;;;;16.63;10.47;;;1.70;99.90;;;;;;5012426;28;20171;-81
2022/11/19 00:37:37;;;;;;;16.23;10.63;;;1.70;99.90;;;;;;5012306;28;20207;-80
2022/11/19 00:40:03;;;;;;;15.63;10.13;;;1.80;99.90;;;;;;5012053;28;20179;-80
2022/11/19 00:42:28;;;;;;;16.57;10.90;;;1.70;99.90;;;;;;5013172;28;20259;-80
2022/11/19 00:44:54;;;;;;;16.13;11.27;;;1.70;99.90;;;;;;5013437;28;20725;-80
2022/11/19 00:47:19;;;;;;;16.10;10.70;;;1.50;99.90;;;;;;5012199;28;20219;-80
2022/11/19 00:49:45;;;;;;;16.20;10.93;;;1.60;99.90;;;;;;5013688;28;20555;-80
2022/11/19 00:52:11;;;;;;;17.40;10.83;;;1.50;99.90;;;;;;5012327;28;20182;-80
2022/11/19 00:54:36;;;;;;;13.43;9.33;;;1.50;99.90;;;;;;5013191;28;20182;-79
2022/11/19 00:57:02;;;;;;;14.00;9.00;;;1.50;99.90;;;;;;5012092;28;20198;-80
2022/11/19 00:59:28;;;;;;;14.50;9.60;;;1.60;99.90;;;;;;5013685;28;20656;-81
2022/11/19 01:01:53;;;;;;;14.77;9.20;;;1.60;99.90;;;;;;5013467;28;20661;-78
2022/11/19 01:04:19;;;;;;;14.43;9.00;;;1.60;99.90;;;;;;5012910;28;20263;-80
2022/11/19 01:06:44;;;;;;;13.87;8.97;;;1.50;99.90;;;;;;5012122;28;20179;-80
2022/11/19 01:09:10;;;;;;;14.20;9.13;;;1.50;99.90;;;;;;5012244;28;20630;-80
2022/11/19 01:11:37;;;;;;;14.30;9.50;;;1.50;99.90;;;;;;5013404;28;20217;-80
2022/11/19 01:14:05;;;;;;;14.17;9.30;;;1.50;99.90;;;;;;5011598;28;20181;-81
2022/11/19 01:16:33;;;;;;;15.13;9.23;;;1.50;99.90;;;;;;5012087;28;20662;-80
2022/11/19 01:18:59;;;;;;;13.50;8.87;;;1.50;99.90;;;;;;5012169;28;20178;-80
2022/11/19 01:21:28;;;;;;;13.90;9.30;;;1.40;99.90;;;;;;5012191;28;20186;-80
2022/11/19 01:23:55;;;;;;;12.50;9.13;;;1.40;99.90;;;;;;5003828;28;20190;-80
2022/11/19 01:26:21;;;;;;;16.00;9.37;;;1.40;99.90;;;;;;5012225;28;20182;-80
2022/11/19 01:28:47;;;;;;;14.27;8.93;;;1.40;99.90;;;;;;5011749;28;20218;-81
2022/11/19 01:31:18;;;;;;;13.80;9.27;;;1.40;99.90;;;;;;5013470;28;20167;-80
2022/11/19 01:33:44;;;;;;;14.70;9.53;;;1.40;99.90;;;;;;5013195;28;20175;-80
2022/11/19 01:36:21;;;;;;;15.70;9.60;;;1.50;99.90;;;;;;5013552;28;20183;-80
2022/11/19 01:38:50;;;;;;;14.20;9.23;;;1.50;99.90;;;;;;5012042;28;20208;-80
2022/11/19 01:41:28;;;;;;;15.10;9.67;;;1.40;99.90;;;;;;5013454;28;20174;-80
2022/11/19 01:44:06;;;;;;;16.23;9.90;;;1.40;99.90;;;;;;5011968;28;20214;-80
2022/11/19 01:46:36;;;;;;;16.17;10.93;;;1.30;99.90;;;;;;5013293;28;20179;-80
2022/11/19 01:49:17;;;;;;;16.43;10.27;;;1.30;99.90;;;;;;5013499;28;20182;-80
2022/11/19 01:51:47;;;;;;;17.53;10.47;;;1.20;99.90;;;;;;5013725;28;20182;-80
2022/11/19 01:54:38;;;;;;;17.37;11.10;;;1.10;99.90;;;;;;5013105;28;20644;-80
2022/11/19 01:57:08;;;;;;;16.70;10.23;;;1.10;99.90;;;;;;5012062;28;20201;-80
2022/11/19 01:59:34;;;;;;;18.40;12.13;;;1.10;99.90;;;;;;5012366;28;20333;-81
2022/11/19 02:02:00;;;;;;;15.30;10.00;;;1.00;99.90;;;;;;5013216;28;20182;-80
2022/11/19 02:04:26;;;;;;;17.40;10.53;;;1.00;99.90;;;;;;5011807;28;20294;-80
2022/11/19 02:06:53;;;;;;;18.47;11.30;;;1.10;99.90;;;;;;5012590;28;20185;-80
2022/11/19 02:09:19;;;;;;;19.10;11.70;;;1.00;99.90;;;;;;5012531;28;20178;-81
2022/11/19 02:12:12;;;;;;;17.37;11.43;;;1.00;99.90;;;;;;5013501;28;20205;-81
2022/11/19 02:14:57;;;;;;;20.10;11.30;;;1.00;99.90;;;;;;5012339;28;20186;-80
2022/11/19 02:17:51;;;;;;;18.13;10.80;;;1.00;99.90;;;;;;5017621;28;20671;-80
2022/11/19 02:20:35;;;;;;;17.93;11.20;;;1.10;99.90;;;;;;5018127;28;20182;-81
2022/11/19 02:23:28;;;;;;;18.73;12.10;;;1.10;99.90;;;;;;5016501;28;20199;-81
2022/11/19 02:26:00;;;;;;;18.93;11.73;;;1.00;99.90;;;;;;5016990;28;20626;-80
2022/11/19 02:29:03;;;;;;;17.63;10.87;;;1.00;99.90;;;;;;5016224;28;20234;-80
2022/11/19 02:31:44;;;;;;;17.33;10.53;;;1.10;99.90;;;;;;5018298;28;20174;-80
2022/11/19 02:34:15;;;;;;;16.80;10.27;;;1.10;99.90;;;;;;5016883;28;20206;-80
2022/11/19 02:36:44;;;;;;;15.50;10.37;;;1.20;99.90;;;;;;5018133;28;20182;-81
2022/11/19 02:39:25;;;;;;;16.33;10.40;;;1.20;99.90;;;;;;5018696;28;20187;-80
2022/11/19 02:42:20;;;;;;;17.90;11.10;;;1.00;99.90;;;;;;5019133;28;20189;-81
2022/11/19 02:45:07;;;;;;;15.00;9.70;;;1.00;99.90;;;;;;5015570;28;20221;-80
2022/11/19 02:47:44;;;;;;;17.17;11.03;;;1.00;99.90;;;;;;5015536;28;20191;-80
2022/11/19 02:50:34;;;;;;;15.70;10.43;;;1.00;99.90;;;;;;5014461;28;20182;-80
2022/11/19 02:53:02;;;;;;;14.17;9.60;;;1.00;99.90;;;;;;5014047;28;20183;-80
2022/11/19 02:55:28;;;;;;;15.37;10.20;;;0.90;99.90;;;;;;5015169;28;20297;-81
2022/11/19 03:06:33;;;;;;;15.40;10.10;;;0.80;99.90;;;;;;5015035;28;20245;-81
2022/11/19 03:08:59;;;;;;;17.03;10.20;;;0.90;99.90;;;;;;5013914;28;20694;-80
2022/11/19 03:11:30;;;;;;;15.17;9.83;;;0.90;99.90;;;;;;5013911;28;20216;-80
2022/11/19 03:17:09;;;;;;;14.13;8.97;;;1.00;99.90;;;;;;5014950;28;20241;-80
2022/11/19 03:19:37;;;;;;;15.33;9.73;;;1.00;99.90;;;;;;5015017;28;20188;-80
2022/11/19 03:22:25;;;;;;;13.73;8.63;;;1.00;99.90;;;;;;5013524;28;20651;-80
2022/11/19 03:25:00;;;;;;;15.07;9.67;;;1.10;99.90;;;;;;5014603;28;20297;-80
2022/11/19 03:27:35;;;;;;;15.20;9.50;;;1.00;99.90;;;;;;5014661;28;20217;-80
2022/11/19 03:30:02;;;;;;;16.60;9.53;;;1.10;99.90;;;;;;5013778;28;20175;-80
2022/11/19 03:32:33;;;;;;;13.53;9.00;;;1.10;99.90;;;;;;5014982;28;20182;-81
2022/11/19 03:35:04;;;;;;;12.67;8.77;;;1.10;99.90;;;;;;5014776;28;20182;-80
2022/11/19 03:37:33;;;;;;;13.43;8.43;;;1.00;99.90;;;;;;5013649;28;20561;-80
2022/11/19 03:40:00;;;;;;;14.50;9.17;;;1.00;99.90;;;;;;5014851;28;20658;-80
2022/11/19 03:42:27;;;;;;;14.03;8.73;;;1.10;99.90;;;;;;5013334;28;20171;-81
2022/11/19 03:45:09;;;;;;;12.83;8.33;;;1.10;99.90;;;;;;5013610;28;20241;-80
2022/11/19 03:47:37;;;;;;;12.40;8.13;;;1.00;99.90;;;;;;5013095;28;20203;-81
2022/11/19 03:50:24;;;;;;;12.77;8.07;;;0.90;99.90;;;;;;5013530;28;20649;-80
2022/11/19 03:52:49;;;;;;;10.43;7.47;;;1.00;99.90;;;;;;5014714;28;20190;-81
2022/11/19 03:55:15;;;;;;;12.03;7.73;;;0.90;99.90;;;;;;5015287;28;20205;-81
2022/11/19 03:57:42;;;;;;;11.40;7.33;;;1.00;99.90;;;;;;5013585;28;20607;-81
2022/11/19 04:00:08;;;;;;;12.33;8.20;;;0.90;99.90;;;;;;5013387;28;20184;-80
2022/11/19 04:02:34;;;;;;;12.03;7.37;;;0.90;99.90;;;;;;5014483;28;20174;-80
2022/11/19 04:05:00;;;;;;;12.23;7.70;;;0.90;99.90;;;;;;5014450;28;20316;-80
2022/11/19 04:07:25;;;;;;;11.80;7.80;;;0.80;99.90;;;;;;5013501;28;20194;-80
2022/11/19 04:09:51;;;;;;;11.67;7.83;;;0.90;99.90;;;;;;5013358;28;20229;-81
2022/11/19 04:12:19;;;;;;;13.50;7.90;;;0.90;99.90;;;;;;5014574;28;20182;-81
2022/11/19 04:14:45;;;;;;;11.63;8.07;;;0.80;99.90;;;;;;5014899;28;20189;-80
2022/11/19 04:17:11;;;;;;;13.53;8.00;;;0.90;99.90;;;;;;5014696;28;20202;-80
2022/11/19 04:19:36;;;;;;;12.03;7.83;;;0.90;99.90;;;;;;5013326;28;20197;-80
2022/11/19 04:22:02;;;;;;;13.03;8.10;;;1.00;99.90;;;;;;5013396;28;20184;-80
2022/11/19 04:24:28;;;;;;;13.90;8.57;;;1.00;99.90;;;;;;5014931;28;20214;-80
2022/11/19 04:26:53;;;;;;;13.20;8.13;;;0.90;99.90;;;;;;5014417;28;20230;-80
2022/11/19 04:29:19;;;;;;;13.53;8.40;;;0.70;99.90;;;;;;5013485;28;20185;-81
2022/11/19 04:31:44;;;;;;;13.20;8.63;;;0.70;99.90;;;;;;5013479;28;20173;-80
2022/11/19 04:34:10;;;;;;;13.30;8.70;;;0.70;99.90;;;;;;5013100;28;20182;-80
2022/11/19 04:36:36;;;;;;;12.30;7.93;;;0.60;99.90;;;;;;5015029;28;20220;-80
2022/11/19 04:39:02;;;;;;;12.60;8.03;;;0.70;99.90;;;;;;5013335;28;20189;-80
2022/11/19 04:41:28;;;;;;;12.80;8.57;;;0.70;99.90;;;;;;5013795;28;20630;-81
2022/11/19 04:43:53;;;;;;;14.50;8.63;;;0.70;99.90;;;;;;5014583;28;20205;-81
2022/11/19 04:46:19;;;;;;;12.53;8.43;;;0.70;99.90;;;;;;5014990;28;20273;-81
2022/11/19 04:48:44;;;;;;;13.17;8.23;;;0.80;99.90;;;;;;5015391;28;20202;-81
2022/11/19 04:51:10;;;;;;;14.10;9.07;;;0.90;99.90;;;;;;5015112;28;20174;-81
2022/11/19 04:53:36;;;;;;;13.07;8.23;;;0.90;99.90;;;;;;5015135;28;20668;-80
2022/11/19 04:56:01;;;;;;;15.20;9.60;;;0.90;99.90;;;;;;5015246;28;20236;-80
2022/11/19 04:58:27;;;;;;;14.00;9.50;;;1.00;99.90;;;;;;5013439;28;20202;-81
2022/11/19 05:00:52;;;;;;;16.47;9.13;;;0.90;99.90;;;;;;5015759;28;20274;-80
2022/11/19 05:03:18;;;;;;;15.87;9.63;;;1.00;99.90;;;;;;5015472;28;20198;-81
2022/11/19 05:05:43;;;;;;;15.20;9.70;;;1.10;99.90;;;;;;5013893;28;20182;-80
2022/11/19 05:08:09;;;;;;;14.20;9.37;;;1.10;99.90;;;;;;5015145;28;20192;-81
2022/11/19 05:10:34;;;;;;;16.40;9.40;;;1.10;99.90;;;;;;5015890;28;20171;-81
2022/11/19 05:13:00;;;;;;;13.93;8.93;;;1.10;99.90;;;;;;5014201;28;20555;-81
2022/11/19 05:15:26;;;;;;;13.87;8.90;;;1.20;99.90;;;;;;5015507;28;20257;-81
2022/11/19 05:17:51;;;;;;;14.73;8.77;;;1.20;99.90;;;;;;5015094;28;20316;-81
2022/11/19 05:20:17;;;;;;;13.73;8.80;;;1.20;99.90;;;;;;5015153;28;20178;-81
2022/11/19 05:22:42;;;;;;;15.47;9.17;;;1.10;99.90;;;;;;5011293;28;20179;-80
2022/11/19 05:25:08;;;;;;;16.33;9.73;;;1.10;99.90;;;;;;5011661;28;20197;-81
2022/11/19 05:27:34;;;;;;;15.33;9.37;;;1.20;99.90;;;;;;5011553;28;20206;-81
2022/11/19 05:29:59;;;;;;;12.97;9.20;;;1.10;99.90;;;;;;5013306;28;20262;-81
2022/11/19 05:32:25;;;;;;;14.90;9.43;;;1.10;99.90;;;;;;5012932;28;20655;-81
2022/11/19 05:34:51;;;;;;;16.13;9.73;;;1.20;99.90;;;;;;5012881;28;20194;-81
2022/11/19 05:37:17;;;;;;;14.97;9.13;;;1.20;99.90;;;;;;5011548;28;20289;-81
2022/11/19 05:39:42;;;;;;;14.33;9.23;;;1.20;99.90;;;;;;5013165;28;20175;-81
2022/11/19 05:42:08;;;;;;;15.33;9.70;;;1.10;99.90;;;;;;5012402;28;20198;-80
2022/11/19 05:44:33;;;;;;;14.77;9.63;;;1.00;99.90;;;;;;5012550;28;20567;-81
2022/11/19 05:46:59;;;;;;;16.57;9.87;;;0.90;99.90;;;;;;5011454;28;20233;-80
2022/11/19 05:49:25;;;;;;;15.00;8.97;;;0.90;99.90;;;;;;5012664;28;20181;-80
2022/11/19 05:51:50;;;;;;;16.57;9.40;;;0.90;99.90;;;;;;5014160;28;20182;-81
2022/11/19 05:54:16;;;;;;;18.40;10.30;;;0.80;99.90;;;;;;5015108;28;20262;-80
2022/11/19 05:56:42;;;;;;;15.70;9.30;;;0.80;99.90;;;;;;5015323;28;20214;-80
2022/11/19 05:59:07;;;;;;;15.97;9.83;;;0.80;99.90;;;;;;5016475;28;20175;-82
2022/11/19 06:01:33;;;;;;;18.17;11.00;;;0.80;99.90;;;;;;5015231;28;20268;-80
2022/11/19 06:03:58;;;;;;;17.10;10.10;;;0.60;99.90;;;;;;5016247;28;20209;-81
2022/11/19 06:06:24;;;;;;;19.00;10.73;;;0.70;99.90;;;;;;5016725;28;20197;-80
2022/11/19 06:08:50;;;;;;;16.20;9.83;;;0.60;99.90;;;;;;5015181;28;20201;-84
2022/11/19 06:14:00;;;;;;;17.63;9.47;;;0.60;99.90;;;;;;5017000;28;20232;-85
2022/11/19 06:16:26;;;;;;;15.17;9.60;;;0.50;99.90;;;;;;5016773;28;20179;-85
2022/11/19 06:18:52;;;;;;;19.27;10.57;;;0.50;99.90;;;;;;5016737;28;20561;-85
2022/11/19 06:21:18;;;;;;;20.57;10.83;;;0.50;99.90;;;;;;5015637;28;20186;-84
2022/11/19 06:23:43;;;;;;;17.20;10.60;;;0.60;99.90;;;;;;5016401;28;20202;-85
2022/11/19 06:26:10;;;;;;;17.63;9.57;;;0.50;99.90;;;;;;5014646;28;20178;-83
2022/11/19 06:28:35;;;;;;;18.93;10.57;;;0.50;99.90;;;;;;5025479;23;20227;-82
2022/11/19 06:31:01;;;;;;;18.03;10.53;;;0.60;99.90;;;;;;4988171;28;20233;-85
2022/11/19 06:33:27;;;;;;;19.57;10.93;;;0.50;99.90;;;;;;5007158;28;20179;-83
2022/11/19 06:35:52;;;;;;;21.07;11.33;;;0.50;99.90;;;;;;4990018;28;20186;-85
2022/11/19 06:38:18;;;;;;;18.30;10.87;;;0.40;99.90;;;;;;5002425;28;20227;-85
2022/11/19 06:40:47;;;;;;;20.37;10.77;;;0.40;99.90;;;;;;4978430;28;20180;-85
2022/11/19 06:43:12;;;;;;;19.57;11.13;;;0.40;99.90;;;;;;4978979;28;20215;-84
2022/11/19 06:45:38;;;;;;;21.53;11.67;;;0.50;99.90;;;;;;4976896;28;20184;-83
2022/11/19 06:48:04;;;;;;;19.00;10.37;;;1.30;99.90;;;;;;4973165;28;20262;-83
2022/11/19 06:50:30;;;;;;;18.03;10.63;;;1.40;99.90;;;;;;4961248;28;20177;-81
2022/11/19 06:52:56;;;;;;;17.90;10.40;;;1.30;99.90;;;;;;4958542;28;20184;-83
2022/11/19 06:55:21;;;;;;;18.27;10.37;;;1.10;99.90;;;;;;4958568;28;20199;-85
2022/11/19 06:57:47;;;;;;;18.93;10.40;;;1.00;99.90;;;;;;4959191;28;20200;-84
2022/11/19 07:00:14;;;;;;;17.77;10.13;;;1.00;99.90;;;;;;4960343;28;20204;-84
2022/11/19 07:02:39;;;;;;;18.60;11.53;;;0.90;99.90;;;;;;4959058;28;20177;-86
2022/11/19 07:05:06;;;;;;;18.23;10.83;;;0.80;99.90;;;;;;4960429;28;20223;-83
2022/11/19 07:07:33;;;;;;;17.63;10.33;;;0.70;99.90;;;;;;4958693;28;20212;-85
2022/11/19 07:09:59;;;;;;;19.13;11.27;;;0.70;99.90;;;;;;4960900;28;20187;-85
2022/11/19 07:12:24;;;;;;;18.67;10.80;;;0.80;99.90;;;;;;4960956;28;20177;-85
2022/11/19 07:14:50;;;;;;;21.73;11.53;;;0.80;99.90;;;;;;4959625;28;20207;-84
2022/11/19 07:17:16;;;;;;;18.67;10.50;;;0.70;99.90;;;;;;4959850;28;20184;-85
2022/11/19 07:19:41;;;;;;;17.17;9.90;;;0.70;99.90;;;;;;4959677;29;20359;-83
2022/11/19 07:22:07;;;;;;;17.73;10.53;;;0.60;99.90;;;;;;4959545;28;20176;-83
2022/11/19 07:24:32;;;;;;;18.10;10.47;;;0.70;99.90;;;;;;4961592;28;20204;-83
2022/11/19 07:26:58;;;;;;;19.53;10.97;;;0.80;99.90;;;;;;4962134;28;20247;-83
2022/11/19 07:29:24;;;;;;;18.93;11.30;;;0.70;99.90;;;;;;4959751;28;20192;-82
2022/11/19 07:31:49;;;;;;;20.27;10.97;;;0.60;99.90;;;;;;4957199;28;20177;-79
2022/11/19 07:34:16;;;;;;;18.03;10.47;;;0.50;99.90;;;;;;4957532;28;20539;-80
2022/11/19 07:36:42;;;;;;;19.70;11.73;;;0.50;99.90;;;;;;4958595;28;20189;-78
2022/11/19 07:39:08;;;;;;;17.30;10.50;;;0.90;99.90;;;;;;4959261;28;20229;-80
2022/11/19 07:44:18;;;;;;;16.13;9.83;;;1.70;99.90;;;;;;4960127;29;20275;-85
2022/11/19 07:46:44;;;;;;;15.60;9.77;;;1.70;99.90;;;;;;4961673;28;20173;-85
2022/11/19 07:49:09;;;;;;;19.63;11.17;;;1.50;99.90;;;;;;4969920;28;20208;-84
2022/11/19 07:51:35;;;;;;;17.90;10.63;;;1.20;99.90;;;;;;4969402;28;20169;-85
2022/11/19 07:54:01;;;;;;;17.93;10.13;;;0.90;99.90;;;;;;4982018;28;20177;-84
2022/11/19 07:56:26;;;;;;;17.20;10.63;;;0.90;99.90;;;;;;4981480;28;20556;-85
2022/11/19 07:58:52;;;;;;;17.30;10.23;;;0.90;99.90;;;;;;4975448;28;20737;-82
2022/11/19 08:01:20;;;;;;;17.03;9.83;;;0.90;99.90;;;;;;4974409;28;20682;-82
2022/11/19 08:03:47;;;;;;;17.93;10.33;;;0.90;99.90;;;;;;4975032;28;20196;-82
2022/11/19 08:06:14;;;;;;;18.33;10.47;;;0.90;99.90;;;;;;4974971;28;20263;-82
2022/11/19 08:08:40;;;;;;;16.47;9.73;;;1.00;99.90;;;;;;4975610;28;20580;-82
2022/11/19 08:11:07;;;;;;;14.70;9.03;;;0.90;99.90;;;;;;4974535;28;20180;-82
2022/11/19 08:13:34;;;;;;;16.83;9.80;;;0.90;99.90;;;;;;4972934;28;20183;-82
2022/11/19 08:16:06;;;;;;;17.10;9.90;;;0.90;99.90;;;;;;4975354;28;20263;-82
2022/11/19 08:18:31;;;;;;;15.80;10.40;;;0.70;99.90;;;;;;4973784;28;20235;-84
2022/11/19 08:21:08;;;;;;;20.13;12.73;;;0.70;99.90;;;;;;4973988;28;20180;-83
2022/11/19 08:23:35;;;;;;;17.87;10.93;;;0.60;99.90;;;;;;4974480;28;20655;-84
2022/11/19 08:26:02;;;;;;;17.70;10.80;;;0.60;99.90;;;;;;4974802;28;20662;-84
2022/11/19 08:28:28;;;;;;;17.53;11.13;;;0.50;99.90;;;;;;4973516;28;20211;-84
2022/11/19 08:30:55;;;;;;;18.70;11.87;;;0.60;99.90;;;;;;4973764;28;20172;-85
2022/11/19 08:33:20;;;;;;;17.10;10.70;;;0.60;99.90;;;;;;4973594;28;20275;-85
2022/11/19 08:35:46;;;;;;;24.87;17.80;;;0.70;99.90;;;;;;4974819;28;20268;-86
2022/11/19 08:38:12;;;;;;;17.60;10.97;;;0.60;99.90;;;;;;4973110;28;20250;-88
2022/11/19 08:40:37;;;;;;;23.60;15.07;;;0.70;99.90;;;;;;4989377;28;20183;-87
2022/11/19 08:43:03;;;;;;;18.53;11.60;;;0.80;99.90;;;;;;4972614;28;20187;-86
2022/11/19 08:45:31;;;;;;;19.77;12.37;;;0.90;99.90;;;;;;4973968;28;20176;-87
2022/11/19 08:47:58;;;;;;;17.47;10.07;;;1.00;99.90;;;;;;4972771;28;20659;-87
2022/11/19 08:50:24;;;;;;;16.27;9.67;;;0.90;99.90;;;;;;4974105;28;20631;-87
2022/11/19 08:52:57;;;;;;;18.47;10.43;;;1.00;99.90;;;;;;4972721;28;20660;-87
2022/11/19 08:55:23;;;;;;;17.13;10.17;;;1.00;99.90;;;;;;4974015;28;20720;-87
2022/11/19 08:57:49;;;;;;;17.53;11.07;;;1.10;99.90;;;;;;4974253;28;20207;-86
2022/11/19 09:00:15;;;;;;;17.37;10.40;;;1.10;99.90;;;;;;4972956;28;20180;-84
2022/11/19 09:02:40;;;;;;;16.50;10.00;;;1.20;99.90;;;;;;4974631;28;20204;-84
2022/11/19 09:05:06;;;;;;;16.93;11.17;;;1.20;99.90;;;;;;4975047;28;20231;-82
2022/11/19 09:07:32;;;;;;;20.40;13.83;;;1.30;99.90;;;;;;4974769;28;20213;-83
2022/11/19 09:09:57;;;;;;;16.63;10.63;;;1.40;99.90;;;;;;4973199;28;20180;-83
2022/11/19 09:12:23;;;;;;;22.00;14.10;;;1.40;99.90;;;;;;4973208;28;20180;-84
2022/11/19 09:14:49;;;;;;;22.80;16.00;;;1.40;99.90;;;;;;4974465;28;20180;-83
2022/11/19 09:17:15;;;;;;;17.90;10.80;;;1.50;99.90;;;;;;4973194;28;20214;-82
2022/11/19 09:19:41;;;;;;;16.70;10.00;;;1.60;99.90;;;;;;4972919;28;20207;-82
2022/11/19 09:22:06;;;;;;;19.33;12.43;;;1.60;99.90;;;;;;4974298;28;20232;-83
2022/11/19 09:24:32;;;;;;;16.23;10.30;;;1.60;99.90;;;;;;4972615;28;20657;-82
2022/11/19 09:26:57;;;;;;;16.10;10.03;;;1.50;99.90;;;;;;4960140;28;20178;-82
2022/11/19 09:29:23;;;;;;;13.57;8.57;;;1.40;99.90;;;;;;4953567;28;20189;-82
2022/11/19 09:31:49;;;;;;;14.33;8.30;;;1.50;99.90;;;;;;4962289;28;20180;-82
2022/11/19 09:34:14;;;;;;;14.03;9.07;;;1.60;99.90;;;;;;4967755;28;20205;-82
2022/11/19 09:36:40;;;;;;;13.93;8.53;;;1.60;99.90;;;;;;4972644;28;20172;-83
2022/11/19 09:39:06;;;;;;;13.53;8.70;;;1.70;99.90;;;;;;4973637;28;20204;-82
2022/11/19 09:41:50;;;;;;;14.07;8.13;;;1.70;99.90;;;;;;4972359;28;20177;-82
2022/11/19 09:44:34;;;;;;;12.37;8.13;;;1.70;99.90;;;;;;4973652;28;20266;-82
2022/11/19 09:47:38;;;;;;;12.80;8.10;;;1.70;99.90;;;;;;4973385;28;20561;-82
2022/11/19 09:50:22;;;;;;;13.33;8.07;;;1.80;99.90;;;;;;4973587;28;20179;-82
2022/11/19 09:52:54;;;;;;;11.90;7.63;;;1.90;99.90;;;;;;4969867;28;20179;-83
2022/11/19 09:55:30;;;;;;;12.43;7.80;;;1.80;99.90;;;;;;4960748;28;20211;-83
2022/11/19 09:57:58;;;;;;;42.37;21.17;;;2.00;99.90;;;;;;4949813;28;20296;-83
2022/11/19 10:00:29;;;;;;;12.70;7.73;;;2.10;99.90;;;;;;4950047;28;20216;-83
2022/11/19 10:02:57;;;;;;;8.23;5.87;;;2.00;99.90;;;;;;4949591;28;20224;-84
2022/11/19 10:05:54;;;;;;;8.20;6.00;;;2.10;99.90;;;;;;4935386;28;20652;-82
2022/11/19 10:08:41;;;;;;;8.50;6.13;;;2.10;99.90;;;;;;4936203;28;20194;-84
2022/11/19 10:11:20;;;;;;;9.63;6.30;;;2.50;99.90;;;;;;4950675;28;20170;-87
2022/11/19 10:14:11;;;;;;;10.87;7.23;;;2.70;99.90;;;;;;4949392;28;20537;-88
2022/11/19 10:16:45;;;;;;;9.97;7.07;;;2.90;99.90;;;;;;4937121;29;20198;-87
2022/11/19 10:19:32;;;;;;;8.27;5.87;;;3.30;99.90;;;;;;4933513;28;20556;-87
2022/11/19 10:22:15;;;;;;;10.23;6.10;;;3.40;99.90;;;;;;4949645;28;20190;-86
2022/11/19 10:24:47;;;;;;;11.50;7.73;;;3.40;99.90;;;;;;4949493;28;20240;-86
2022/11/19 10:27:29;;;;;;;9.93;7.00;;;3.30;99.90;;;;;;4934591;28;20182;-86
2022/11/19 10:29:58;;;;;;;10.20;6.87;;;3.10;99.90;;;;;;4934517;28;20190;-87
2022/11/19 10:32:34;;;;;;;18.07;12.73;;;2.90;99.90;;;;;;4934406;29;20194;-87
2022/11/19 10:35:07;;;;;;;10.10;7.07;;;2.70;99.90;;;;;;4949289;28;20179;-85
2022/11/19 10:37:39;;;;;;;10.30;8.00;;;2.70;99.90;;;;;;4950967;28;20217;-86
2022/11/19 10:40:17;;;;;;;13.97;9.03;;;2.40;99.90;;;;;;4952809;28;20179;-89
2022/11/19 10:43:32;;;;;;;17.40;9.23;;;3.50;99.90;;;;;;4953053;28;20606;-82
2022/11/19 10:46:01;;;;;;;16.30;10.03;;;4.40;99.90;;;;;;4951363;28;20203;-82
2022/11/19 10:48:41;;;;;;;12.03;8.03;;;4.70;99.90;;;;;;4953443;28;20246;-83
2022/11/19 10:51:23;;;;;;;12.40;8.70;;;3.90;99.90;;;;;;4938996;28;20179;-84
2022/11/19 10:53:51;;;;;;;10.70;7.40;;;4.70;99.90;;;;;;4938597;28;20187;-83
2022/11/19 10:56:21;;;;;;;11.90;7.03;;;4.60;99.90;;;;;;4938475;28;20177;-84
2022/11/19 10:59:06;;;;;;;12.27;7.67;;;4.80;99.90;;;;;;4953264;28;20201;-84
2022/11/19 11:01:35;;;;;;;11.43;8.67;;;4.80;99.90;;;;;;4937767;28;20726;-88
2022/11/19 11:04:20;;;;;;;11.37;7.83;;;4.00;99.90;;;;;;4952961;28;20223;-83
2022/11/19 11:07:04;;;;;;;9.53;6.67;;;3.20;99.90;;;;;;4938018;29;20280;-84
2022/11/19 11:09:37;;;;;;;10.30;6.93;;;2.50;99.90;;;;;;4937756;28;20174;-85
2022/11/19 11:15:16;;;;;;;11.40;7.20;;;2.70;99.90;;;;;;4938031;29;20238;-83
2022/11/19 11:17:44;;;;;;;10.17;6.73;;;2.40;99.90;;;;;;4952097;28;20207;-82
2022/11/19 11:20:16;;;;;;;10.83;6.57;;;2.10;99.90;;;;;;4952134;28;20185;-83
2022/11/19 11:22:48;;;;;;;9.87;6.50;;;2.20;99.90;;;;;;4937253;28;20177;-84
2022/11/19 11:25:21;;;;;;;9.77;6.67;;;2.20;99.90;;;;;;4937182;28;20301;-84
2022/11/19 11:28:15;;;;;;;10.23;6.90;;;2.00;99.90;;;;;;4937425;28;20214;-80
2022/11/19 11:30:56;;;;;;;12.93;7.67;;;2.90;99.90;;;;;;4952767;28;20181;-82
2022/11/19 12:27:57;;;;;;;10.43;7.33;;;2.20;99.90;;;;;;5539068;23;20230;-81
2022/11/19 12:30:44;;;;;;;13.23;8.83;;;2.30;99.90;;;;;;5012421;28;20196;-83
2022/11/19 12:33:27;;;;;;;13.90;8.17;;;2.30;99.90;;;;;;5013937;28;20286;-82
2022/11/19 12:36:20;;;;;;;32.60;16.63;;;2.30;99.90;;;;;;5012756;28;20576;-81
2022/11/19 12:39:08;;;;;;;9.97;7.07;;;2.40;99.90;;;;;;5012478;28;20249;-81
2022/11/19 12:41:49;;;;;;;10.33;7.07;;;2.50;99.90;;;;;;5009139;28;20190;-82
2022/11/19 12:44:37;;;;;;;11.73;7.23;;;2.60;99.90;;;;;;5001436;23;20247;-85
2022/11/19 12:47:14;;;;;;;10.03;7.00;;;2.70;99.90;;;;;;4971892;28;20178;-86
2022/11/19 12:50:10;;;;;;;14.13;9.67;;;2.70;99.90;;;;;;4974272;28;20214;-86
2022/11/19 12:52:50;;;;;;;10.70;7.60;;;2.70;99.90;;;;;;4972522;28;20263;-86
2022/11/19 12:55:52;;;;;;;11.00;7.67;;;2.80;99.90;;;;;;4972922;28;20188;-86
2022/11/19 12:58:45;;;;;;;11.33;7.30;;;2.60;99.90;;;;;;4955354;28;20235;-88
2022/11/19 13:01:24;;;;;;;12.27;8.00;;;2.60;99.90;;;;;;4952952;28;20177;-86
2022/11/19 13:04:15;;;;;;;10.70;7.40;;;2.50;99.90;;;;;;4953380;29;20264;-88
2022/11/19 13:06:50;;;;;;;11.80;7.20;;;2.40;99.90;;;;;;4953253;29;20269;-88
2022/11/19 13:09:36;;;;;;;9.27;6.60;;;2.30;99.90;;;;;;4954458;28;20183;-88
2022/11/19 13:12:06;;;;;;;11.23;8.27;;;2.30;99.90;;;;;;4953147;29;20177;-87
2022/11/19 13:14:55;;;;;;;10.43;7.30;;;2.30;99.90;;;;;;4950272;29;20220;-88
2022/11/19 13:17:36;;;;;;;12.57;8.43;;;2.30;99.90;;;;;;4937753;28;20181;-88
2022/11/19 13:20:06;;;;;;;12.37;8.13;;;2.30;99.90;;;;;;4934821;29;20217;-87
2022/11/19 13:22:36;;;;;;;20.13;13.03;;;2.10;99.90;;;;;;4946001;28;20217;-87
2022/11/19 13:25:13;;;;;;;16.80;11.20;;;2.00;99.90;;;;;;4953868;28;20267;-87
2022/11/19 13:27:39;;;;;;;58.97;35.60;;;1.90;99.90;;;;;;4968229;28;20181;-87
2022/11/19 13:30:17;;;;;;;33.10;21.80;;;1.80;99.90;;;;;;4953101;28;20639;-87
2022/11/19 13:33:04;;;;;;;16.87;10.43;;;1.70;99.90;;;;;;4953327;28;20196;-87
2022/11/19 13:36:02;;;;;;;12.73;8.43;;;1.60;99.90;;;;;;4967749;28;20545;-87
2022/11/19 13:38:50;;;;;;;13.47;8.10;;;1.50;99.90;;;;;;4953235;28;20267;-87
2022/11/19 13:44:37;;;;;;;12.40;7.93;;;1.50;99.90;;;;;;4952410;28;20173;-87
2022/11/19 13:44:39;;;;;;;12.63;9.63;;;1.50;99.90;;;;;;4953813;28;20299;-87
2022/11/19 13:47:17;;;;;;;12.53;8.83;;;1.40;99.90;;;;;;4952546;28;20725;-87
2022/11/19 13:49:49;;;;;;;13.37;8.77;;;1.40;99.90;;;;;;4953941;28;20464;-87
2022/11/19 13:52:33;;;;;;;11.10;7.83;;;1.40;99.90;;;;;;4953959;28;20181;-87
2022/11/19 13:54:59;;;;;;;11.87;8.10;;;1.50;99.90;;;;;;4953900;28;20246;-87
2022/11/19 13:57:35;;;;;;;13.33;7.93;;;1.50;99.90;;;;;;4953662;28;20181;-87
2022/11/19 14:00:05;;;;;;;12.60;7.53;;;1.60;99.90;;;;;;4953860;28;20663;-88
2022/11/19 14:03:11;;;;;;;11.67;8.03;;;1.60;99.90;;;;;;4952721;28;20209;-88
2022/11/19 14:06:14;;;;;;;14.30;8.37;;;1.50;99.90;;;;;;4968631;28;20279;-87
2022/11/19 14:08:46;;;;;;;12.07;8.13;;;1.50;99.90;;;;;;4953788;28;20181;-89
2022/11/19 14:11:11;;;;;;;20.00;13.93;;;1.40;99.90;;;;;;4953977;28;20561;-86
2022/11/19 14:13:40;;;;;;;14.10;9.00;;;1.40;99.90;;;;;;4972216;28;20701;-86
2022/11/19 14:28:45;;;;;;;14.10;9.27;;;1.20;99.90;;;;;;4957091;29;20236;-86
2022/11/19 14:31:11;;;;;;;15.07;9.33;;;1.20;99.90;;;;;;4956013;28;20188;-86